Time;durP1;ratioP1;P1;durP2;ratioP2;P2;SDS_P1;SDS_P2;PMS_P1;PMS_P2;Temp;Humidity;BMP_temperature;BMP_pressure;BME280_temperature;BME280_humidity;BME280_pressure;Samples;Min_cycle;Max_cycle;Signal;HPM_P1;HPM_P2
2021/06/15 00:00:45;;;;;;;;;;;;;;;27.46;32.06;100982.56;4984404;28;1138;-71
2021/06/15 00:03:12;;;;;;;;;;;;;;;27.36;32.36;100988.88;4988908;28;1244;-72
2021/06/15 00:05:39;;;;;;;;;;;;;;;27.34;31.24;100991.66;4988248;28;1167;-72
2021/06/15 00:08:06;;;;;;;;;;;;;;;27.33;30.92;100989.97;4988677;28;1379;-72
2021/06/15 00:10:32;;;;;;;;;;;;;;;27.33;31.21;100995.31;4986521;28;1157;-72
2021/06/15 00:13:05;;;;;;;;;;;;;;;27.33;30.90;100997.16;4987990;28;1481;-70
2021/06/15 00:15:32;;;;;;;;;;;;;;;27.38;33.45;100998.44;4987868;28;1985;-69
2021/06/15 00:17:58;;;;;;;;;;;;;;;27.37;31.32;100993.22;4986559;28;1256;-71
2021/06/15 00:20:26;;;;;;;;;;;;;;;27.33;32.05;100998.00;4988119;28;1211;-69
2021/06/15 00:22:53;;;;;;;;;;;;;;;27.34;32.50;100986.31;4988214;28;1288;-70
2021/06/15 00:25:20;;;;;;;;;;;;;;;27.28;31.22;100989.53;4987846;28;1144;-70
2021/06/15 00:27:48;;;;;;;;;;;;;;;27.27;31.31;100984.34;4981466;28;1299;-69
2021/06/15 00:30:17;;;;;;;;;;;;;;;27.23;31.44;100991.78;4985935;28;1255;-69
2021/06/15 00:32:46;;;;;;;;;;;;;;;27.23;31.33;100978.41;4987703;28;1284;-70
2021/06/15 00:35:12;;;;;;;;;;;;;;;27.24;31.29;100976.59;4986516;28;2001;-68
2021/06/15 00:37:39;;;;;;;;;;;;;;;27.26;31.48;100978.16;4978974;28;1295;-69
2021/06/15 00:40:06;;;;;;;;;;;;;;;27.18;31.85;100972.63;4967202;28;1738;-69
2021/06/15 00:42:33;;;;;;;;;;;;;;;27.21;31.39;100960.81;4987737;28;1280;-69
2021/06/15 00:45:00;;;;;;;;;;;;;;;27.19;31.37;100974.31;4986406;28;1100;-68
2021/06/15 00:47:28;;;;;;;;;;;;;;;27.25;33.86;100962.22;4979728;28;1363;-68
2021/06/15 00:49:55;;;;;;;;;;;;;;;27.30;33.10;100954.66;4985849;28;1094;-68
2021/06/15 00:52:23;;;;;;;;;;;;;;;27.29;31.98;100953.81;4987788;28;1355;-69
2021/06/15 00:54:49;;;;;;;;;;;;;;;27.24;32.44;100956.03;4987883;28;1309;-69
2021/06/15 00:57:17;;;;;;;;;;;;;;;27.28;32.50;100964.63;4986505;28;1985;-69
2021/06/15 00:59:44;;;;;;;;;;;;;;;27.24;33.35;100963.22;4987709;28;794;-69
2021/06/15 01:02:11;;;;;;;;;;;;;;;27.20;33.10;100962.66;4987700;28;1272;-69
2021/06/15 01:04:38;;;;;;;;;;;;;;;27.18;34.29;100964.59;4986911;28;767;-69
2021/06/15 01:07:09;;;;;;;;;;;;;;;27.16;33.37;100969.25;4985164;28;1370;-70
2021/06/15 01:09:41;;;;;;;;;;;;;;;27.15;34.10;100957.69;4982097;28;1232;-68
2021/06/15 01:12:08;;;;;;;;;;;;;;;27.14;32.81;100960.53;4968788;28;1365;-69
2021/06/15 01:14:43;;;;;;;;;;;;;;;27.12;32.96;100957.13;4987085;28;1117;-69
2021/06/15 01:17:15;;;;;;;;;;;;;;;27.11;32.35;100948.25;4981316;28;1922;-69
2021/06/15 01:19:45;;;;;;;;;;;;;;;27.17;32.68;100941.53;4980470;28;1338;-68
2021/06/15 01:22:33;;;;;;;;;;;;;;;27.18;33.96;100947.72;4986659;28;1312;-68
2021/06/15 01:24:59;;;;;;;;;;;;;;;27.08;32.90;100940.50;4986438;28;1128;-69
2021/06/15 01:27:41;;;;;;;;;;;;;;;27.14;32.87;100947.16;4978592;28;1272;-69
2021/06/15 01:30:09;;;;;;;;;;;;;;;27.07;32.83;100944.16;5004509;28;1174;-69
2021/06/15 01:32:36;;;;;;;;;;;;;;;27.07;33.17;100946.00;4984835;28;1382;-69
2021/06/15 01:35:08;;;;;;;;;;;;;;;27.10;33.53;100948.41;4986982;28;1149;-72
2021/06/15 01:37:38;;;;;;;;;;;;;;;27.08;33.27;100950.38;4985990;28;1985;-71
2021/06/15 01:40:13;;;;;;;;;;;;;;;27.11;36.53;100939.41;4984644;28;1117;-68
2021/06/15 01:42:53;;;;;;;;;;;;;;;27.07;33.06;100943.31;4984811;28;1424;-68
2021/06/15 01:45:25;;;;;;;;;;;;;;;27.02;33.07;100945.56;4987335;28;1045;-71
2021/06/15 01:47:57;;;;;;;;;;;;;;;27.00;33.01;100951.03;4976569;28;1216;-71
2021/06/15 01:50:31;;;;;;;;;;;;;;;27.03;33.51;100950.75;4984346;28;1196;-72
2021/06/15 01:53:00;;;;;;;;;;;;;;;27.01;33.37;100943.88;4986067;28;1325;-73
2021/06/15 01:55:28;;;;;;;;;;;;;;;27.03;33.83;100941.88;4981081;28;2015;-72
2021/06/15 01:57:57;;;;;;;;;;;;;;;26.96;33.85;100935.41;4974117;28;1366;-72
2021/06/15 02:00:25;;;;;;;;;;;;;;;26.98;33.57;100939.63;4986278;28;1025;-69
2021/06/15 02:02:53;;;;;;;;;;;;;;;26.96;33.58;100927.41;4986147;28;1390;-69
2021/06/15 02:05:22;;;;;;;;;;;;;;;26.99;33.74;100927.13;4986568;28;1160;-70
2021/06/15 02:07:50;;;;;;;;;;;;;;;26.99;34.23;100929.81;4979407;28;1473;-69
2021/06/15 02:10:18;;;;;;;;;;;;;;;26.98;34.84;100930.78;4982508;28;1070;-70
2021/06/15 02:12:47;;;;;;;;;;;;;;;26.93;34.93;100935.69;4968457;28;1379;-70
2021/06/15 02:15:14;;;;;;;;;;;;;;;26.91;35.01;100922.44;4986124;28;1146;-70
2021/06/15 02:17:45;;;;;;;;;;;;;;;26.95;34.96;100907.00;4985252;28;1906;-70
2021/06/15 02:20:14;;;;;;;;;;;;;;;26.91;35.16;100905.56;4985395;28;1214;-70
2021/06/15 02:22:46;;;;;;;;;;;;;;;26.96;34.79;100901.50;4986195;28;1336;-70
2021/06/15 02:25:18;;;;;;;;;;;;;;;26.97;33.39;100892.50;4984748;28;1137;-70
2021/06/15 02:27:46;;;;;;;;;;;;;;;26.98;33.46;100891.53;4974121;28;1300;-72
2021/06/15 02:30:33;;;;;;;;;;;;;;;27.01;32.62;100893.06;4985592;28;1337;-73
2021/06/15 02:33:02;;;;;;;;;;;;;;;26.91;31.83;100877.00;4984389;28;1300;-73
2021/06/15 02:35:29;;;;;;;;;;;;;;;26.94;31.43;100870.53;4984587;28;1985;-72
2021/06/15 02:38:00;;;;;;;;;;;;;;;26.92;30.22;100869.84;4984821;28;1331;-72
2021/06/15 02:40:29;;;;;;;;;;;;;;;26.88;30.21;100857.72;4985113;28;1192;-72
2021/06/15 02:42:56;;;;;;;;;;;;;;;26.84;29.88;100857.16;4985499;28;1266;-72
2021/06/15 02:45:27;;;;;;;;;;;;;;;26.80;30.33;100849.56;4986111;28;1219;-72
2021/06/15 02:47:55;;;;;;;;;;;;;;;26.79;30.23;100853.16;4985147;28;1233;-72
2021/06/15 02:50:24;;;;;;;;;;;;;;;26.80;30.23;100844.22;4986185;28;1163;-72
2021/06/15 02:53:10;;;;;;;;;;;;;;;26.84;29.62;100849.13;4976849;28;1221;-72
2021/06/15 02:55:40;;;;;;;;;;;;;;;26.86;30.41;100849.00;4967977;28;1977;-70
2021/06/15 02:58:09;;;;;;;;;;;;;;;26.82;29.88;100852.94;4985572;28;1264;-70
2021/06/15 03:00:36;;;;;;;;;;;;;;;26.80;30.20;100849.56;4984518;28;1128;-70
2021/06/15 03:03:07;;;;;;;;;;;;;;;26.84;30.36;100850.97;4987505;28;1581;-71
2021/06/15 03:05:34;;;;;;;;;;;;;;;26.87;31.55;100854.19;4988020;28;917;-72
2021/06/15 03:08:01;;;;;;;;;;;;;;;26.73;31.04;100849.22;4975492;28;1408;-72
2021/06/15 03:10:28;;;;;;;;;;;;;;;26.72;31.57;100839.50;4988987;28;1131;-70
2021/06/15 03:13:02;;;;;;;;;;;;;;;26.73;31.38;100837.69;4962956;28;1310;-70
2021/06/15 03:15:38;;;;;;;;;;;;;;;26.78;31.19;100851.50;4989265;28;1153;-69
2021/06/15 03:18:11;;;;;;;;;;;;;;;26.82;31.23;100852.94;4987203;28;1962;-69
2021/06/15 03:20:39;;;;;;;;;;;;;;;26.85;31.13;100858.00;4949171;29;1428;-70
2021/06/15 03:23:25;;;;;;;;;;;;;;;26.85;31.37;100866.00;4950572;28;1225;-69
2021/06/15 03:25:52;;;;;;;;;;;;;;;26.83;31.68;100865.31;4950856;28;1189;-69
2021/06/15 03:28:24;;;;;;;;;;;;;;;26.71;31.53;100869.91;4964012;28;1285;-68
2021/06/15 03:30:54;;;;;;;;;;;;;;;26.67;31.17;100876.47;4989193;28;1044;-68
2021/06/15 03:33:22;;;;;;;;;;;;;;;26.68;31.47;100874.66;4986274;28;1325;-68
2021/06/15 03:35:50;;;;;;;;;;;;;;;26.71;31.11;100872.56;4988699;28;1938;-68
2021/06/15 03:38:18;;;;;;;;;;;;;;;26.67;32.13;100886.31;4987835;28;1241;-69
2021/06/15 03:40:50;;;;;;;;;;;;;;;26.70;33.76;100888.72;4971564;28;1272;-68
2021/06/15 03:43:18;;;;;;;;;;;;;;;26.74;34.46;100899.00;4987519;28;1378;-69
2021/06/15 03:45:55;;;;;;;;;;;;;;;26.72;35.42;100895.63;4988251;28;1067;-70
2021/06/15 03:48:23;;;;;;;;;;;;;;;26.66;35.95;100892.66;4987669;28;1335;-69
2021/06/15 03:50:51;;;;;;;;;;;;;;;26.54;36.10;100874.03;4988892;28;891;-69
2021/06/15 03:53:19;;;;;;;;;;;;;;;26.58;35.53;100883.47;4987615;28;1205;-69
2021/06/15 03:55:47;;;;;;;;;;;;;;;26.60;34.02;100878.00;4979042;28;1597;-69
2021/06/15 03:58:14;;;;;;;;;;;;;;;26.60;32.97;100872.66;4951643;28;1950;-69
2021/06/15 04:00:46;;;;;;;;;;;;;;;26.61;33.06;100883.22;4954314;28;1088;-70
2021/06/15 04:03:13;;;;;;;;;;;;;;;26.59;32.66;100882.50;4969197;28;1340;-69
2021/06/15 04:05:40;;;;;;;;;;;;;;;26.58;32.53;100888.81;4967714;28;1313;-70
2021/06/15 04:08:09;;;;;;;;;;;;;;;26.61;34.86;100893.06;4968577;28;1205;-70
2021/06/15 04:10:38;;;;;;;;;;;;;;;26.52;32.52;100891.19;4950030;28;1057;-68
2021/06/15 04:13:05;;;;;;;;;;;;;;;26.44;32.16;100901.69;4948578;28;1320;-68
2021/06/15 04:15:34;;;;;;;;;;;;;;;26.47;32.64;100891.59;4948237;28;1571;-68
2021/06/15 04:18:01;;;;;;;;;;;;;;;26.41;31.93;100897.47;4948242;28;1985;-69
2021/06/15 04:20:30;;;;;;;;;;;;;;;26.53;32.91;100891.06;4948311;28;1138;-69
2021/06/15 04:22:58;;;;;;;;;;;;;;;26.47;32.51;100886.25;4949822;28;1328;-70
2021/06/15 04:25:26;;;;;;;;;;;;;;;26.36;32.69;100886.31;4931696;28;1193;-71
2021/06/15 04:27:53;;;;;;;;;;;;;;;26.38;32.41;100881.72;4949248;28;1265;-71
2021/06/15 04:30:21;;;;;;;;;;;;;;;26.46;32.44;100887.22;4932267;28;1399;-71
2021/06/15 04:32:47;;;;;;;;;;;;;;;26.46;32.97;100899.72;4949561;28;1227;-71
2021/06/15 04:35:20;;;;;;;;;;;;;;;26.41;32.62;100904.63;4949623;28;1445;-70
2021/06/15 04:37:48;;;;;;;;;;;;;;;26.46;32.31;100905.94;4947931;29;1973;-70
2021/06/15 04:40:19;;;;;;;;;;;;;;;26.50;32.23;100920.72;4949699;28;1061;-70
2021/06/15 04:42:55;;;;;;;;;;;;;;;26.48;32.65;100925.31;4948223;28;1534;-69
2021/06/15 04:45:25;;;;;;;;;;;;;;;26.45;31.94;100932.75;4947932;28;983;-71
2021/06/15 04:47:58;;;;;;;;;;;;;;;26.43;32.11;100937.41;4949260;28;1532;-71
2021/06/15 04:50:27;;;;;;;;;;;;;;;26.35;32.11;100934.53;4947853;28;1261;-71
2021/06/15 04:52:55;;;;;;;;;;;;;;;26.38;32.83;100944.97;4949027;28;1326;-71
2021/06/15 04:55:27;;;;;;;;;;;;;;;26.45;32.48;100940.75;4949164;29;1140;-71
2021/06/15 04:57:55;;;;;;;;;;;;;;;26.49;33.22;100936.88;4949175;28;1977;-70
2021/06/15 05:00:23;;;;;;;;;;;;;;;26.47;32.21;100929.00;4955836;28;1177;-71
2021/06/15 05:02:51;;;;;;;;;;;;;;;26.48;33.04;100928.00;4966630;28;1226;-71
2021/06/15 05:05:19;;;;;;;;;;;;;;;26.51;32.88;100942.91;4968456;28;1127;-72
2021/06/15 05:07:53;;;;;;;;;;;;;;;26.53;33.05;100944.50;4966889;28;1241;-70
2021/06/15 05:10:20;;;;;;;;;;;;;;;26.57;33.29;100945.91;4968126;28;918;-71
2021/06/15 05:12:47;;;;;;;;;;;;;;;26.60;33.39;100961.66;4968112;28;1225;-71
2021/06/15 05:15:14;;;;;;;;;;;;;;;26.56;33.51;100956.72;4968265;28;1015;-70
2021/06/15 05:17:44;;;;;;;;;;;;;;;26.60;33.76;100961.66;4950908;28;1952;-70
2021/06/15 05:20:12;;;;;;;;;;;;;;;26.63;33.49;100958.72;4960802;28;1511;-68
2021/06/15 05:23:00;;;;;;;;;;;;;;;26.65;33.79;100968.44;4953485;28;1367;-69
2021/06/15 05:25:27;;;;;;;;;;;;;;;26.64;33.56;100972.94;4947534;28;1054;-68
2021/06/15 05:27:54;;;;;;;;;;;;;;;26.67;33.19;100974.50;4947797;28;1231;-67
2021/06/15 05:30:22;;;;;;;;;;;;;;;26.65;32.94;100971.13;4947721;28;1065;-67
2021/06/15 05:32:48;;;;;;;;;;;;;;;26.73;33.52;100976.63;4948063;28;1245;-67
2021/06/15 05:35:15;;;;;;;;;;;;;;;26.69;32.83;100983.25;4947983;28;1210;-66
2021/06/15 05:37:43;;;;;;;;;;;;;;;26.69;32.98;100999.28;4947598;28;1911;-66
2021/06/15 05:40:11;;;;;;;;;;;;;;;26.69;32.91;100985.91;4947472;28;1048;-66
2021/06/15 05:42:37;;;;;;;;;;;;;;;26.66;32.99;100996.88;4947758;28;1312;-65
2021/06/15 05:45:07;;;;;;;;;;;;;;;26.69;33.38;100999.28;4930474;28;1034;-65
2021/06/15 05:47:34;;;;;;;;;;;;;;;26.64;33.59;100999.66;4947303;28;1265;-66
2021/06/15 05:50:02;;;;;;;;;;;;;;;26.67;33.38;101003.88;4947535;28;1065;-65
2021/06/15 05:52:31;;;;;;;;;;;;;;;26.63;34.44;101001.47;4947892;28;1288;-67
2021/06/15 05:54:59;;;;;;;;;;;;;;;26.56;34.47;100996.81;4947910;28;949;-66
2021/06/15 05:57:29;;;;;;;;;;;;;;;26.51;34.83;101009.69;4947630;28;1907;-67
2021/06/15 05:59:57;;;;;;;;;;;;;;;26.54;35.33;101010.28;4947679;28;951;-67
2021/06/15 06:02:24;;;;;;;;;;;;;;;26.56;34.59;101013.69;4951362;28;1587;-67
2021/06/15 06:10:04;;;;;;;;;;;;;;;26.56;35.19;101015.50;4966406;28;1038;-67
2021/06/15 06:12:31;;;;;;;;;;;;;;;26.60;35.48;101019.59;4952999;28;1558;-67
2021/06/15 06:14:58;;;;;;;;;;;;;;;26.65;35.46;101025.41;4966403;28;1084;-72
2021/06/15 06:17:25;;;;;;;;;;;;;;;26.71;35.72;101032.03;4963185;28;1910;-72
2021/06/15 06:20:12;;;;;;;;;;;;;;;26.75;35.31;101028.13;4950623;28;1520;-68
2021/06/15 06:22:39;;;;;;;;;;;;;;;26.77;35.47;101027.03;4953892;28;1231;-69
2021/06/15 06:25:08;;;;;;;;;;;;;;;26.76;35.30;101019.13;4946466;28;1509;-68
2021/06/15 06:27:36;;;;;;;;;;;;;;;26.79;35.38;101030.41;4960786;28;1258;-68
2021/06/15 06:30:04;;;;;;;;;;;;;;;26.81;35.00;101036.47;4965004;28;1063;-69
2021/06/15 06:32:30;;;;;;;;;;;;;;;26.80;35.24;101026.78;4951775;28;1355;-75
2021/06/15 06:34:57;;;;;;;;;;;;;;;26.83;34.86;101029.19;4944851;29;1198;-78
2021/06/15 06:37:24;;;;;;;;;;;;;;;26.86;34.81;101030.75;4948585;28;1907;-70
2021/06/15 06:39:51;;;;;;;;;;;;;;;26.89;34.91;101033.16;4948787;28;941;-71
2021/06/15 06:42:19;;;;;;;;;;;;;;;26.90;34.88;101038.34;4955163;28;1598;-72
2021/06/15 06:44:46;;;;;;;;;;;;;;;26.89;34.72;101042.03;4961058;28;840;-71
2021/06/15 06:47:15;;;;;;;;;;;;;;;26.90;34.91;101040.22;4950529;28;1386;-72
2021/06/15 06:49:43;;;;;;;;;;;;;;;26.94;35.07;101041.63;4932533;28;1420;-73
2021/06/15 06:52:09;;;;;;;;;;;;;;;26.98;35.19;101032.34;4949879;28;1281;-65
2021/06/15 06:54:36;;;;;;;;;;;;;;;27.00;34.98;101033.06;4965914;28;1135;-64
2021/06/15 06:57:03;;;;;;;;;;;;;;;27.05;35.68;101029.00;4956103;28;1985;-67
2021/06/15 06:59:30;;;;;;;;;;;;;;;27.03;35.78;101025.63;4959334;28;1204;-66
2021/06/15 07:01:56;;;;;;;;;;;;;;;27.02;36.05;101025.78;4970396;28;1244;-65
2021/06/15 07:04:23;;;;;;;;;;;;;;;27.05;36.27;101028.19;4968184;28;1197;-64
2021/06/15 07:06:52;;;;;;;;;;;;;;;27.08;35.91;101030.59;4967349;28;1625;-68
2021/06/15 07:09:19;;;;;;;;;;;;;;;27.09;35.83;101025.09;4962562;28;742;-68
2021/06/15 07:11:46;;;;;;;;;;;;;;;27.07;36.24;101032.41;4958252;28;1299;-68
2021/06/15 07:14:13;;;;;;;;;;;;;;;27.07;37.02;101028.88;4969721;28;810;-68
2021/06/15 07:16:40;;;;;;;;;;;;;;;27.08;37.04;101036.75;4969157;28;1421;-67
2021/06/15 07:19:11;;;;;;;;;;;;;;;27.08;37.37;101033.25;4952571;28;1409;-69
2021/06/15 07:21:38;;;;;;;;;;;;;;;27.09;37.86;101037.59;4969255;28;1394;-66
2021/06/15 07:24:05;;;;;;;;;;;;;;;27.09;37.52;101032.25;4961641;28;1460;-68
2021/06/15 07:26:50;;;;;;;;;;;;;;;27.11;37.56;101035.66;4962983;28;1315;-68
2021/06/15 07:29:16;;;;;;;;;;;;;;;27.12;37.36;101031.97;4969554;28;826;-68
2021/06/15 07:31:44;;;;;;;;;;;;;;;27.13;37.69;101033.69;5016823;28;1402;-70
2021/06/15 07:34:10;;;;;;;;;;;;;;;27.16;37.92;101036.09;5009073;28;1606;-67
2021/06/15 07:36:37;;;;;;;;;;;;;;;27.15;38.45;101034.38;4964369;28;1320;-67
2021/06/15 07:39:04;;;;;;;;;;;;;;;27.18;38.22;101038.66;4969558;28;1984;-68
2021/06/15 07:41:35;;;;;;;;;;;;;;;27.23;38.19;101042.59;4969325;28;1394;-78
2021/06/15 07:44:02;;;;;;;;;;;;;;;27.23;38.42;101047.94;4969409;28;976;-72
2021/06/15 07:46:31;;;;;;;;;;;;;;;27.25;38.60;101050.47;4969027;28;1406;-69
2021/06/15 07:48:57;;;;;;;;;;;;;;;27.24;38.63;101049.63;4969382;28;1028;-69
2021/06/15 07:51:24;;;;;;;;;;;;;;;27.25;39.06;101051.31;4962978;28;1142;-72
2021/06/15 07:53:51;;;;;;;;;;;;;;;27.25;39.05;101048.66;4948540;28;1253;-69
2021/06/15 07:56:20;;;;;;;;;;;;;;;27.27;38.96;101054.69;4954249;28;1241;-69
2021/06/15 07:58:47;;;;;;;;;;;;;;;27.29;38.92;101057.25;4969065;28;1989;-71
2021/06/15 08:01:14;;;;;;;;;;;;;;;27.30;38.77;101059.78;4969015;28;1055;-72
2021/06/15 08:03:40;;;;;;;;;;;;;;;27.30;39.51;101059.78;4968904;28;1158;-68
2021/06/15 08:06:08;;;;;;;;;;;;;;;27.31;38.20;101056.13;4969026;28;1170;-69
2021/06/15 08:08:37;;;;;;;;;;;;;;;27.34;38.34;101055.88;4962197;28;1602;-70
2021/06/15 08:11:04;;;;;;;;;;;;;;;27.33;38.22;101053.34;4935609;28;1155;-68
2021/06/15 08:13:32;;;;;;;;;;;;;;;27.34;38.57;101055.88;4967752;28;1304;-69
2021/06/15 08:15:59;;;;;;;;;;;;;;;27.37;38.05;101060.09;4968678;28;1209;-69
2021/06/15 08:18:26;;;;;;;;;;;;;;;27.43;37.84;101054.22;4959220;28;1993;-69
2021/06/15 08:20:54;;;;;;;;;;;;;;;27.46;37.91;101061.97;4964924;28;1003;-70
2021/06/15 08:23:21;;;;;;;;;;;;;;;27.44;38.15;101053.25;4951831;28;1276;-70
2021/06/15 08:25:48;;;;;;;;;;;;;;;27.40;38.42;101060.66;4975153;28;1178;-68
2021/06/15 08:28:15;;;;;;;;;;;;;;;27.39;38.82;101067.00;5070176;28;1212;-69
2021/06/15 08:30:42;;;;;;;;;;;;;;;27.42;39.25;101069.44;5065340;28;1148;-70
2021/06/15 08:33:09;;;;;;;;;;;;;;;27.42;38.60;101069.44;4999047;28;1275;-69
2021/06/15 08:35:36;;;;;;;;;;;;;;;27.46;38.27;101068.19;4964055;28;1428;-69
2021/06/15 08:38:03;;;;;;;;;;;;;;;27.48;38.48;101065.41;4949156;29;1910;-70
2021/06/15 08:40:30;;;;;;;;;;;;;;;27.48;36.95;101058.19;4949204;28;1130;-70
2021/06/15 08:42:57;;;;;;;;;;;;;;;27.48;37.51;101063.53;4963233;28;1654;-70
2021/06/15 08:45:24;;;;;;;;;;;;;;;27.47;37.69;101066.38;4963852;28;1198;-74
2021/06/15 08:47:52;;;;;;;;;;;;;;;27.44;37.85;101064.81;4959416;28;1319;-73
2021/06/15 08:50:21;;;;;;;;;;;;;;;27.46;37.54;101049.47;4947728;28;1722;-72
2021/06/15 08:52:48;;;;;;;;;;;;;;;27.51;36.91;101043.72;4964849;28;1363;-75
2021/06/15 08:55:16;;;;;;;;;;;;;;;27.50;37.67;101048.22;4951135;28;1245;-74
2021/06/15 08:57:48;;;;;;;;;;;;;;;27.51;37.42;101038.38;5056273;28;1910;-76
2021/06/15 09:00:19;;;;;;;;;;;;;;;27.53;36.69;101047.94;5069077;28;920;-77
2021/06/15 09:02:48;;;;;;;;;;;;;;;27.56;37.12;101046.81;4977293;28;1299;-74
2021/06/15 09:05:19;;;;;;;;;;;;;;;27.55;37.03;101050.47;4951141;28;1306;-72
2021/06/15 09:07:59;;;;;;;;;;;;;;;27.53;37.06;101047.94;4966707;28;1344;-73
2021/06/15 09:10:26;;;;;;;;;;;;;;;27.55;36.77;101045.09;4966848;28;996;-72
2021/06/15 09:12:52;;;;;;;;;;;;;;;27.57;36.38;101046.66;4967829;28;1272;-75
2021/06/15 09:15:21;;;;;;;;;;;;;;;27.58;36.16;101043.00;4967947;28;814;-75
2021/06/15 09:17:51;;;;;;;;;;;;;;;27.57;35.92;101041.31;4966004;28;1988;-74
2021/06/15 09:20:19;;;;;;;;;;;;;;;27.58;35.63;101040.34;4965641;28;1253;-72
2021/06/15 09:22:55;;;;;;;;;;;;;;;27.55;36.39;101039.75;5056455;28;1363;-72
2021/06/15 09:25:23;;;;;;;;;;;;;;;27.59;36.24;101041.19;5067431;28;1466;-76
2021/06/15 09:27:54;;;;;;;;;;;;;;;27.57;36.39;101049.34;4975702;28;1288;-75
2021/06/15 09:30:24;;;;;;;;;;;;;;;27.61;36.74;101050.75;4966582;28;1332;-75
2021/06/15 09:32:51;;;;;;;;;;;;;;;27.64;35.95;101049.63;4967446;28;1236;-76
2021/06/15 09:35:19;;;;;;;;;;;;;;;27.64;36.12;101052.31;4967816;28;1562;-76
2021/06/15 09:37:50;;;;;;;;;;;;;;;27.64;36.52;101050.50;4966093;28;1927;-77
2021/06/15 09:40:20;;;;;;;;;;;;;;;27.63;36.69;101056.81;4966605;28;1546;-75
2021/06/15 09:42:48;;;;;;;;;;;;;;;27.64;36.62;101058.53;4968536;28;1312;-77
2021/06/15 09:45:21;;;;;;;;;;;;;;;27.66;36.55;101055.72;4966227;28;763;-77
2021/06/15 09:47:48;;;;;;;;;;;;;;;27.62;37.10;101060.50;4967344;28;1305;-75
2021/06/15 09:50:18;;;;;;;;;;;;;;;27.61;37.08;101050.75;4968036;28;1079;-77
2021/06/15 09:52:45;;;;;;;;;;;;;;;27.65;37.27;101057.53;4966905;28;1302;-73
2021/06/15 09:55:17;;;;;;;;;;;;;;;27.63;36.42;101054.13;4966279;28;992;-75
2021/06/15 09:57:48;;;;;;;;;;;;;;;27.66;37.04;101056.53;4966053;28;1906;-78
2021/06/15 10:00:19;;;;;;;;;;;;;;;27.71;36.81;101053.47;4967815;28;889;-75
2021/06/15 10:02:48;;;;;;;;;;;;;;;27.71;36.58;101057.97;4950606;28;1284;-77
2021/06/15 10:05:21;;;;;;;;;;;;;;;27.69;37.36;101047.41;4948723;28;890;-77
2021/06/15 10:07:59;;;;;;;;;;;;;;;27.68;36.84;101051.91;4966107;28;1247;-78
2021/06/15 10:10:28;;;;;;;;;;;;;;;27.68;36.69;101049.25;4960243;28;1550;-78
2021/06/15 10:13:02;;;;;;;;;;;;;;;27.72;36.58;101051.63;4947161;28;1830;-79
2021/06/15 10:15:29;;;;;;;;;;;;;;;27.73;36.45;101045.28;4950618;28;1514;-79
2021/06/15 10:18:05;;;;;;;;;;;;;;;27.76;36.19;101045.84;4948141;28;1972;-78
2021/06/15 10:20:37;;;;;;;;;;;;;;;27.76;36.73;101050.34;4955339;28;1560;-74
2021/06/15 10:23:07;;;;;;;;;;;;;;;27.74;36.82;101049.66;4949181;28;1321;-75
2021/06/15 10:25:34;;;;;;;;;;;;;;;27.74;36.89;101049.66;4954966;28;1146;-74
2021/06/15 10:28:08;;;;;;;;;;;;;;;27.77;37.25;101046.72;4965555;28;1253;-80
2021/06/15 10:30:40;;;;;;;;;;;;;;;27.77;36.94;101041.34;4963134;28;1451;-77
2021/06/15 10:33:12;;;;;;;;;;;;;;;27.72;37.05;101047.13;4965935;28;1218;-76
2021/06/15 10:35:44;;;;;;;;;;;;;;;27.75;37.19;101046.88;4966406;28;1228;-76
2021/06/15 10:38:19;;;;;;;;;;;;;;;27.75;36.00;101040.66;5049015;28;1910;-76
2021/06/15 10:40:50;;;;;;;;;;;;;;;27.74;36.46;101039.81;5059760;28;1040;-76
2021/06/15 10:43:22;;;;;;;;;;;;;;;27.77;36.22;101036.84;4948195;28;1229;-76
2021/06/15 10:45:56;;;;;;;;;;;;;;;27.76;36.37;101037.81;4963917;28;1051;-76
2021/06/15 10:48:24;;;;;;;;;;;;;;;27.80;36.13;101043.75;4964380;28;1599;-75
2021/06/15 10:50:52;;;;;;;;;;;;;;;27.79;36.30;101037.56;4966851;28;1047;-75
2021/06/15 10:53:20;;;;;;;;;;;;;;;27.76;36.00;101042.31;4966619;28;1378;-76
2021/06/15 10:56:04;;;;;;;;;;;;;;;27.76;36.15;101037.81;4966629;28;961;-75
2021/06/15 10:58:37;;;;;;;;;;;;;;;27.78;35.81;101043.06;4964514;28;1918;-77
2021/06/15 11:01:23;;;;;;;;;;;;;;;27.83;35.62;101052.34;4965619;28;1399;-76
2021/06/15 11:03:53;;;;;;;;;;;;;;;27.80;35.76;101049.09;4965195;28;1348;-77
2021/06/15 11:06:20;;;;;;;;;;;;;;;27.82;35.27;101047.13;4965144;28;766;-76
2021/06/15 11:09:10;;;;;;;;;;;;;;;27.78;35.96;101045.72;4965467;28;1271;-75
2021/06/15 11:11:37;;;;;;;;;;;;;;;27.79;36.32;101050.09;4966660;28;1328;-76
2021/06/15 11:14:05;;;;;;;;;;;;;;;27.80;35.59;101041.94;4959466;28;1504;-75
2021/06/15 11:16:33;;;;;;;;;;;;;;;27.90;35.51;101047.31;4962683;28;1416;-70
2021/06/15 11:19:17;;;;;;;;;;;;;;;27.89;35.99;101045.59;4957062;28;1974;-70
2021/06/15 11:21:54;;;;;;;;;;;;;;;27.90;36.26;101045.47;4953236;28;1492;-70
2021/06/15 11:24:23;;;;;;;;;;;;;;;27.87;35.94;101040.41;4947762;28;1249;-69
2021/06/15 11:27:01;;;;;;;;;;;;;;;27.85;36.32;101045.03;4949477;28;1245;-72
2021/06/15 11:29:38;;;;;;;;;;;;;;;27.95;35.90;101042.34;4949669;29;1158;-72
2021/06/15 11:32:15;;;;;;;;;;;;;;;27.99;36.26;101039.28;4947298;28;1358;-72
2021/06/15 11:34:43;;;;;;;;;;;;;;;28.00;35.83;101032.91;4947773;28;1313;-70
2021/06/15 11:37:20;;;;;;;;;;;;;;;27.97;36.11;101040.38;4949671;28;1142;-70
2021/06/15 11:39:52;;;;;;;;;;;;;;;27.95;36.55;101029.81;4949594;29;1973;-68
2021/06/15 11:42:21;;;;;;;;;;;;;;;27.95;37.07;101031.66;4949277;28;1190;-69
2021/06/15 11:45:01;;;;;;;;;;;;;;;27.99;36.92;101025.03;4949866;28;1115;-72
2021/06/15 11:47:30;;;;;;;;;;;;;;;28.02;37.10;101027.44;4949119;28;1673;-77
2021/06/15 11:50:15;;;;;;;;;;;;;;;28.08;36.85;101027.75;4949632;28;914;-70
2021/06/15 11:52:44;;;;;;;;;;;;;;;27.99;37.46;101025.03;4949532;28;1559;-68
2021/06/15 11:55:11;;;;;;;;;;;;;;;27.91;37.79;101025.72;4957988;28;1172;-73
2021/06/15 11:57:39;;;;;;;;;;;;;;;27.92;37.93;101018.53;4967057;28;1294;-72
2021/06/15 12:00:11;;;;;;;;;;;;;;;27.93;38.17;101014.91;4968491;28;1923;-74
2021/06/15 12:02:38;;;;;;;;;;;;;;;27.88;38.20;101011.78;4958620;28;1503;-67
2021/06/15 12:05:05;;;;;;;;;;;;;;;27.83;38.16;101022.91;4958067;28;1288;-71
2021/06/15 12:07:36;;;;;;;;;;;;;;;27.77;38.28;101014.59;4961915;28;1249;-72
2021/06/15 12:10:02;;;;;;;;;;;;;;;27.73;38.20;101000.63;4948647;28;1246;-67
2021/06/15 12:12:29;;;;;;;;;;;;;;;27.64;41.63;101005.00;4971586;28;1568;-65
2021/06/15 12:14:56;;;;;;;;;;;;;;;27.57;41.31;101003.03;4967383;28;1361;-69
2021/06/15 12:17:22;;;;;;;;;;;;;;;27.51;41.23;101007.06;4956864;28;1225;-68
2021/06/15 12:19:49;;;;;;;;;;;;;;;27.48;38.10;101004.69;4975221;28;1979;-64
2021/06/15 12:22:16;;;;;;;;;;;;;;;27.47;37.89;101002.16;4986284;28;1322;-64
2021/06/15 12:24:43;;;;;;;;;;;;;;;27.47;38.60;101002.16;4986137;28;994;-64
2021/06/15 12:27:22;;;;;;;;;;;;;;;27.42;37.28;100999.88;4986208;28;1332;-67
2021/06/15 12:29:49;;;;;;;;;;;;;;;27.43;38.26;100993.56;4947335;28;1046;-69
2021/06/15 12:32:15;;;;;;;;;;;;;;;27.44;37.86;100986.38;4945250;28;1237;-80
2021/06/15 12:34:42;;;;;;;;;;;;;;;27.42;38.12;100986.50;4944368;28;1060;-65
2021/06/15 12:37:09;;;;;;;;;;;;;;;27.43;38.07;100979.31;4947443;28;1226;-72
2021/06/15 12:39:40;;;;;;;;;;;;;;;27.36;38.62;100981.66;4946515;28;1974;-72
2021/06/15 12:42:14;;;;;;;;;;;;;;;27.39;37.63;100976.03;4947477;29;1273;-67
2021/06/15 12:44:42;;;;;;;;;;;;;;;27.25;37.11;100968.41;4950689;28;1307;-70
2021/06/15 12:47:10;;;;;;;;;;;;;;;27.13;37.22;100975.72;4985929;28;1500;-71
2021/06/15 12:49:58;;;;;;;;;;;;;;;27.10;36.82;100970.63;4982583;28;1116;-71
2021/06/15 12:52:38;;;;;;;;;;;;;;;26.97;36.98;100967.34;4963821;28;1395;-70
2021/06/15 12:55:16;;;;;;;;;;;;;;;26.88;37.19;100965.47;4956031;28;1417;-72
2021/06/15 12:57:56;;;;;;;;;;;;;;;26.91;37.26;100972.38;4930481;28;1268;-69
2021/06/15 13:00:23;;;;;;;;;;;;;;;26.88;37.24;100960.13;4961409;28;1895;-74
2021/06/15 13:03:05;;;;;;;;;;;;;;;26.87;36.98;100952.28;4947238;28;1319;-74
2021/06/15 13:05:32;;;;;;;;;;;;;;;26.85;36.75;100954.22;4946712;29;771;-74